Date,TemperatureHighF,TemperatureAvgF,TemperatureLowF,DewpointHighF,DewpointAvgF,DewpointLowF,HumidityHigh,HumidityAvg,HumidityLow,PressureMaxIn,PressureMinIn,WindSpeedMaxMPH,WindSpeedAvgMPH,GustSpeedMaxMPH,PrecipitationSumIn
2012-12-1,50,39,29,38,33,26,100,80,58,0.00,40.00,5,3,7,0.00
2012-12-2,59,42,31,50,38,31,100,88,54,0.00,40.00,6,3,12,0.00
2012-12-3,66,57,46,55,52,46,100,85,63,0.00,40.00,8,3,15,0.01
2012-12-4,73,59,45,55,50,45,100,76,45,0.00,40.00,9,4,15,0.00
2012-12-5,64,50,35,49,33,21,68,52,36,0.00,40.00,12,8,22,0.00
2012-12-6,45,34,25,26,19,-100,82,59,42,0.00,40.00,9,3,19,0.00
2012-12-7,42,38,32,41,36,26,100,93,72,0.00,40.00,5,3,8,0.14
2012-12-8,49,40,36,47,39,36,100,98,81,0.00,40.00,3,2,6,0.03
2012-12-9,48,46,44,48,46,44,100,100,100,0.00,40.00,4,3,11,0.43
2012-12-10,53,51,46,53,51,43,100,99,82,0.00,40.00,11,3,18,0.09
2012-12-11,48,41,35,43,32,25,84,71,60,0.00,40.00,9,4,21,0.04
2012-12-12,41,36,29,27,25,23,94,65,52,0.00,40.00,7,3,13,0.01
2012-12-13,46,32,22,30,25,19,100,77,37,0.00,40.00,4,2,8,0.00
2012-12-14,56,34,19,30,24,19,100,70,24,0.00,40.00,4,2,9,0.00
2012-12-15,52,40,28,31,27,23,88,62,39,0.00,40.00,7,3,11,0.00
2012-12-16,47,44,40,43,38,29,100,81,51,0.00,40.00,6,3,11,0.00
2012-12-17,49,44,38,49,44,38,100,99,91,0.00,40.00,7,3,12,0.06
2012-12-18,56,46,38,50,38,28,100,76,52,0.00,40.00,15,6,28,0.08
2012-12-19,52,42,33,37,32,28,90,69,55,0.00,40.00,12,5,25,0.01
2012-12-20,44,39,33,44,34,30,100,85,59,0.00,40.00,11,4,19,0.28
2012-12-21,45,39,36,45,28,21,100,66,53,0.00,40.00,17,11,42,0.53
2012-12-22,40,36,31,21,19,18,58,51,42,0.00,40.00,20,14,42,0.01
2012-12-23,49,36,24,24,19,16,73,51,29,0.00,40.00,12,6,18,0.00
2012-12-24,39,32,26,33,27,22,100,83,55,0.00,40.00,8,3,12,0.00
2012-12-25,45,36,31,37,32,31,100,89,60,0.00,40.00,7,3,12,0.37
2012-12-26,35,31,28,33,30,25,100,94,74,0.00,40.00,8,4,19,0.15
2012-12-27,38,35,33,33,27,23,100,73,59,0.00,40.00,15,8,31,0.69
2012-12-28,43,35,29,26,24,21,85,63,47,0.00,40.00,11,4,21,0.28
2012-12-29,42,34,30,36,29,25,100,82,63,0.00,40.00,11,5,29,0.18
2012-12-30,39,34,28,25,20,17,64,56,45,0.00,40.00,17,11,35,0.05
2012-12-31,40,32,21,27,20,14,76,61,51,0.00,40.00,8,5,14,0.00